createdAt,value
2018-05-23T00:01:14.565Z,16.74
2018-05-23T00:03:48.987Z,16.78
2018-05-23T00:06:18.308Z,16.84
2018-05-23T00:08:49.322Z,16.79
2018-05-23T00:11:42.808Z,16.79
2018-05-23T00:14:13.447Z,16.77
2018-05-23T00:16:55.930Z,16.83
2018-05-23T00:19:28.803Z,16.89
2018-05-23T00:22:09.555Z,16.80
2018-05-23T00:24:49.905Z,16.68
2018-05-23T00:27:19.370Z,16.72
2018-05-23T00:29:51.721Z,16.66
2018-05-23T00:32:23.860Z,16.50
2018-05-23T00:34:54.241Z,16.40
2018-05-23T00:37:27.831Z,16.51
2018-05-23T00:39:57.487Z,16.48
2018-05-23T00:42:26.855Z,16.43
2018-05-23T00:45:01.550Z,16.38
2018-05-23T00:47:33.607Z,16.44
2018-05-23T00:50:13.121Z,16.50
2018-05-23T00:52:43.568Z,16.51
2018-05-23T00:55:30.967Z,16.45
2018-05-23T00:58:09.664Z,16.35
2018-05-23T01:00:45.331Z,16.31
2018-05-23T01:03:15.940Z,16.30
2018-05-23T01:05:49.331Z,16.20
2018-05-23T01:08:36.415Z,16.20
2018-05-23T01:11:14.603Z,16.20
2018-05-23T01:13:53.583Z,16.18
2018-05-23T01:16:26.754Z,16.20
2018-05-23T01:18:59.944Z,16.15
2018-05-23T01:21:38.317Z,16.12
2018-05-23T01:24:07.612Z,16.14
2018-05-23T01:26:49.104Z,16.17
2018-05-23T01:29:19.476Z,16.18
2018-05-23T01:31:57.588Z,16.19
2018-05-23T01:34:29.481Z,16.32
2018-05-23T01:37:10.475Z,16.17
2018-05-23T01:39:43.925Z,16.15
2018-05-23T01:42:16.595Z,16.07
2018-05-23T01:45:01.382Z,16.07
2018-05-23T01:47:48.027Z,15.89
2018-05-23T01:50:35.642Z,15.74
2018-05-23T01:53:29.577Z,15.55
2018-05-23T01:55:57.983Z,15.51
2018-05-23T01:58:27.038Z,15.39
2018-05-23T02:00:55.377Z,15.29
2018-05-23T02:03:23.867Z,15.23
2018-05-23T02:05:52.734Z,15.17
2018-05-23T02:08:24.230Z,15.10
2018-05-23T02:10:54.112Z,15.01
2018-05-23T02:13:22.455Z,14.96
2018-05-23T02:15:55.218Z,14.95
2018-05-23T02:18:28.715Z,14.95
2018-05-23T02:20:58.680Z,14.90
2018-05-23T02:23:29.733Z,14.84
2018-05-23T02:26:01.467Z,14.80
2018-05-23T02:28:33.596Z,14.78
2018-05-23T02:31:01.880Z,14.74
2018-05-23T02:33:38.540Z,14.67
2018-05-23T02:36:08.896Z,14.64
2018-05-23T02:38:47.135Z,14.60
2018-05-23T02:41:15.446Z,14.61
2018-05-23T02:43:44.526Z,14.58
2018-05-23T02:46:19.891Z,14.57
2018-05-23T02:48:50.124Z,14.52
2018-05-23T02:51:18.567Z,14.47
2018-05-23T02:53:46.945Z,14.42
2018-05-23T02:56:15.259Z,14.40
2018-05-23T02:58:44.555Z,14.36
2018-05-23T03:01:14.879Z,14.36
2018-05-23T03:03:49.775Z,14.32
2018-05-23T03:06:20.055Z,14.31
2018-05-23T03:08:59.224Z,14.24
2018-05-23T03:11:38.995Z,14.17
2018-05-23T03:14:08.226Z,14.15
2018-05-23T03:16:40.411Z,14.17
2018-05-23T03:19:33.371Z,14.21
2018-05-23T03:22:04.513Z,14.24
2018-05-23T03:24:40.315Z,14.30
2018-05-23T03:27:19.035Z,14.36
2018-05-23T03:29:51.234Z,14.39
2018-05-23T03:32:34.182Z,14.41
2018-05-23T03:35:11.177Z,14.42
2018-05-23T03:37:59.266Z,14.44
2018-05-23T03:40:33.436Z,14.42
2018-05-23T03:43:32.915Z,14.51
2018-05-23T03:46:06.231Z,14.63
2018-05-23T03:48:47.398Z,14.63
2018-05-23T03:51:19.669Z,14.64
2018-05-23T03:53:49.838Z,14.67
2018-05-23T03:56:28.535Z,14.72
2018-05-23T03:59:07.222Z,14.74
2018-05-23T04:05:08.015Z,14.80
2018-05-23T04:07:39.999Z,14.91
2018-05-23T04:10:08.393Z,15.25
2018-05-23T04:12:36.716Z,15.19
2018-05-23T04:15:15.955Z,15.16
2018-05-23T04:17:52.720Z,15.18
2018-05-23T04:20:21.142Z,15.24
2018-05-23T04:22:51.463Z,15.50
2018-05-23T04:25:36.705Z,15.73
2018-05-23T04:28:12.690Z,15.62
2018-05-23T04:30:45.012Z,15.65
2018-05-23T04:33:15.010Z,15.74
2018-05-23T04:35:56.837Z,15.76
2018-05-23T04:38:27.824Z,15.73
2018-05-23T04:41:00.837Z,15.88
2018-05-23T04:43:30.108Z,16.09
2018-05-23T04:46:04.709Z,16.17
2018-05-23T04:48:38.799Z,16.31
2018-05-23T04:51:24.095Z,16.64
2018-05-23T04:53:52.391Z,16.57
2018-05-23T04:56:21.666Z,16.70
2018-05-23T04:58:57.337Z,16.90
2018-05-23T05:01:31.632Z,16.98
2018-05-23T05:04:26.645Z,17.00
2018-05-23T05:06:55.885Z,16.89
2018-05-23T05:09:31.529Z,16.77
2018-05-23T05:12:04.565Z,16.50
2018-05-23T05:14:37.334Z,16.59
2018-05-23T05:17:12.497Z,16.57
2018-05-23T05:19:52.372Z,16.64
2018-05-23T05:22:20.670Z,16.55
2018-05-23T05:24:48.970Z,16.42
2018-05-23T05:27:17.240Z,16.61
2018-05-23T05:29:47.318Z,16.80
2018-05-23T05:32:15.616Z,16.70
2018-05-23T05:34:43.892Z,16.70
2018-05-23T05:37:12.141Z,16.72
2018-05-23T05:39:40.450Z,16.80
2018-05-23T05:42:08.827Z,16.87
2018-05-23T05:44:38.122Z,17.01
2018-05-23T05:47:06.381Z,16.90
2018-05-23T05:49:40.954Z,16.97
2018-05-23T05:52:29.733Z,16.97
2018-05-23T05:55:09.907Z,17.08
2018-05-23T05:58:03.869Z,17.29
2018-05-23T06:00:38.130Z,17.35
2018-05-23T06:03:06.432Z,17.63
2018-05-23T06:05:54.939Z,17.95
2018-05-23T06:08:23.296Z,18.15
2018-05-23T06:10:51.595Z,18.14
2018-05-23T06:13:30.008Z,18.34
2018-05-23T06:16:02.210Z,18.47
2018-05-23T06:18:36.234Z,18.51
2018-05-23T06:21:06.227Z,18.50
2018-05-23T06:23:38.417Z,18.68
2018-05-23T06:26:08.414Z,18.25
2018-05-23T06:28:46.774Z,18.42
2018-05-23T06:31:16.004Z,18.31
2018-05-23T06:33:52.211Z,18.18
2018-05-23T06:36:23.031Z,18.25
2018-05-23T06:38:56.155Z,18.06
2018-05-23T06:41:30.015Z,17.97
2018-05-23T06:43:59.889Z,18.09
2018-05-23T06:46:32.335Z,18.14
2018-05-23T06:49:04.499Z,17.92
2018-05-23T06:51:35.546Z,17.77
2018-05-23T06:54:09.547Z,17.88
2018-05-23T06:59:46.347Z,17.67
2018-05-23T07:02:19.287Z,17.90
2018-05-23T07:04:49.575Z,17.56
2018-05-23T07:07:18.920Z,17.79
2018-05-23T07:09:49.183Z,17.75
2018-05-23T07:12:28.861Z,18.04
2018-05-23T07:14:57.220Z,18.11
2018-05-23T07:17:37.416Z,18.03
2018-05-23T07:20:06.724Z,18.05
2018-05-23T07:22:36.439Z,17.91
2018-05-23T07:25:05.800Z,17.94
2018-05-23T07:27:37.622Z,17.83
2018-05-23T07:30:06.960Z,17.83
2018-05-23T07:32:59.327Z,17.78
2018-05-23T07:35:34.460Z,17.60
2018-05-23T07:38:15.382Z,17.78
2018-05-23T07:43:55.020Z,18.13
2018-05-23T07:46:29.147Z,18.33
2018-05-23T07:48:58.478Z,18.50
2018-05-23T07:51:33.567Z,18.84
2018-05-23T07:54:15.912Z,18.27
2018-05-23T07:56:45.017Z,18.45
2018-05-23T07:59:13.340Z,18.86
2018-05-23T08:01:41.600Z,18.65
2018-05-23T08:04:10.039Z,18.56
2018-05-23T08:06:39.076Z,18.87
2018-05-23T08:09:07.375Z,18.88
2018-05-23T08:11:36.454Z,19.50
2018-05-23T08:14:05.765Z,19.18
2018-05-23T08:16:34.145Z,19.39
2018-05-23T08:19:02.438Z,19.76
2018-05-23T08:21:49.032Z,19.80
2018-05-23T08:24:19.385Z,20.15
2018-05-23T08:27:07.499Z,19.74
2018-05-23T08:30:04.625Z,19.59
2018-05-23T08:32:33.880Z,19.10
2018-05-23T08:35:06.046Z,19.76
2018-05-23T08:37:36.902Z,19.58
2018-05-23T08:40:06.356Z,19.57
2018-05-23T08:42:52.539Z,19.57
2018-05-23T08:45:46.692Z,19.52
2018-05-23T08:48:26.192Z,20.61
2018-05-23T08:51:18.272Z,20.53
2018-05-23T08:53:58.737Z,20.17
2018-05-23T08:56:32.675Z,20.16
2018-05-23T08:59:02.744Z,20.93
2018-05-23T09:01:34.357Z,21.04
2018-05-23T09:04:08.203Z,21.27
2018-05-23T09:06:36.522Z,22.58
2018-05-23T09:09:16.534Z,22.46
2018-05-23T09:11:45.980Z,22.49
2018-05-23T09:14:15.287Z,23.67
2018-05-23T09:16:49.242Z,23.02
2018-05-23T09:19:30.748Z,23.30
2018-05-23T09:25:00.520Z,23.37
2018-05-23T09:27:30.882Z,23.37
2018-05-23T09:30:03.892Z,23.48
2018-05-23T09:32:34.212Z,23.00
2018-05-23T09:35:03.370Z,22.15
2018-05-23T09:37:57.025Z,23.75
2018-05-23T09:40:25.329Z,23.78
2018-05-23T09:43:01.151Z,23.86
2018-05-23T09:45:34.243Z,24.01
2018-05-23T09:48:02.544Z,24.59
2018-05-23T09:50:41.468Z,24.13
2018-05-23T09:53:18.949Z,23.83
2018-05-23T09:55:48.777Z,23.64
2018-05-23T09:58:18.419Z,23.10
2018-05-23T10:00:52.732Z,23.45
2018-05-23T10:03:24.341Z,24.80
2018-05-23T10:05:54.684Z,23.82
2018-05-23T10:08:36.432Z,24.89
2018-05-23T10:11:09.439Z,24.00
2018-05-23T10:13:37.723Z,23.73
2018-05-23T10:16:10.112Z,23.57
2018-05-23T10:18:40.088Z,22.06
2018-05-23T10:21:24.961Z,23.55
2018-05-23T10:24:18.396Z,23.20
2018-05-23T10:26:54.852Z,23.32
2018-05-23T10:29:34.613Z,23.80
2018-05-23T10:32:24.267Z,24.38
2018-05-23T10:34:54.572Z,24.90
2018-05-23T10:37:27.145Z,23.47
2018-05-23T10:39:58.720Z,24.32
2018-05-23T10:42:30.400Z,25.19
2018-05-23T10:45:08.716Z,25.30
2018-05-23T10:47:56.789Z,26.57
2018-05-23T10:50:30.588Z,27.35
2018-05-23T10:53:12.646Z,27.06
2018-05-23T10:55:46.355Z,26.67
2018-05-23T10:58:21.910Z,26.55
2018-05-23T11:00:56.736Z,26.70
2018-05-23T11:03:28.823Z,26.30
2018-05-23T11:09:03.096Z,28.19
2018-05-23T11:11:37.040Z,27.89
2018-05-23T11:14:05.998Z,27.88
2018-05-23T11:16:37.033Z,27.89
2018-05-23T11:19:11.350Z,27.31
2018-05-23T11:21:41.680Z,27.74
2018-05-23T11:24:31.960Z,26.94
2018-05-23T11:27:15.028Z,25.69
2018-05-23T11:29:57.180Z,27.02
2018-05-23T11:32:27.518Z,29.47
2018-05-23T11:35:03.563Z,32.45
2018-05-23T11:37:46.077Z,33.07
2018-05-23T11:40:24.202Z,31.85
2018-05-23T11:43:09.644Z,31.17
2018-05-23T11:45:45.080Z,33.59
2018-05-23T11:48:14.608Z,35.38
2018-05-23T11:50:43.912Z,35.19
2018-05-23T11:53:36.299Z,32.98
2018-05-23T11:56:23.955Z,32.68
2018-05-23T11:58:53.570Z,32.54
2018-05-23T12:01:24.389Z,35.11
2018-05-23T12:03:56.102Z,36.98
2018-05-23T12:06:30.136Z,36.45
2018-05-23T12:09:09.231Z,36.34
2018-05-23T12:11:41.247Z,34.68
2018-05-23T12:14:16.623Z,37.24
2018-05-23T12:16:53.390Z,34.45
2018-05-23T12:19:23.892Z,32.76
2018-05-23T12:21:54.473Z,31.63
2018-05-23T12:24:36.211Z,32.65
2018-05-23T12:27:06.950Z,30.19
2018-05-23T12:29:35.343Z,30.59
2018-05-23T12:32:09.602Z,29.79
2018-05-23T12:34:57.551Z,31.59
2018-05-23T12:37:29.519Z,34.10
2018-05-23T12:40:15.683Z,33.21
2018-05-23T12:45:53.362Z,35.99
2018-05-23T12:48:29.440Z,34.87
2018-05-23T12:51:01.503Z,32.86
2018-05-23T12:53:34.319Z,34.56
2018-05-23T12:56:02.996Z,35.37
2018-05-23T12:58:35.597Z,35.98
2018-05-23T13:01:07.742Z,35.65
2018-05-23T13:03:38.149Z,35.40
2018-05-23T13:06:11.087Z,34.79
2018-05-23T13:08:40.578Z,36.48
2018-05-23T13:11:14.590Z,36.89
2018-05-23T13:13:53.993Z,34.94
2018-05-23T13:16:23.291Z,36.75
2018-05-23T13:18:51.611Z,34.30
2018-05-23T13:21:28.117Z,35.35
2018-05-23T13:24:01.031Z,36.11
2018-05-23T13:29:45.029Z,40.69
2018-05-23T13:32:25.163Z,40.64
2018-05-23T13:34:55.591Z,40.46
2018-05-23T13:37:49.554Z,40.85
2018-05-23T13:40:22.465Z,40.22
2018-05-23T13:43:00.882Z,40.78
2018-05-23T13:45:31.343Z,40.20
2018-05-23T13:48:01.368Z,39.39
2018-05-23T13:50:30.074Z,34.82
2018-05-23T13:52:58.367Z,32.39
2018-05-23T13:55:27.748Z,33.40
2018-05-23T13:57:58.712Z,33.20
2018-05-23T14:00:27.193Z,32.90
2018-05-23T14:02:56.489Z,35.60
2018-05-23T14:05:29.823Z,37.72
2018-05-23T14:08:07.899Z,37.76
2018-05-23T14:10:42.907Z,35.74
2018-05-23T14:13:22.625Z,33.14
2018-05-23T14:15:51.987Z,35.86
2018-05-23T14:18:24.704Z,37.39
2018-05-23T14:20:56.337Z,39.23
2018-05-23T14:23:28.883Z,39.01
2018-05-23T14:26:02.634Z,38.70
2018-05-23T14:28:32.994Z,39.54
2018-05-23T14:31:01.170Z,41.39
2018-05-23T14:33:29.506Z,40.88
2018-05-23T14:35:57.742Z,41.24
2018-05-23T14:38:25.993Z,42.20
2018-05-23T14:40:55.004Z,41.60
2018-05-23T14:43:23.378Z,41.23
2018-05-23T14:45:54.955Z,41.62
2018-05-23T14:48:31.600Z,41.39
2018-05-23T14:51:10.699Z,41.17
2018-05-23T14:54:10.320Z,42.02
2018-05-23T14:56:45.267Z,42.40
2018-05-23T14:59:21.024Z,42.32
2018-05-23T15:02:00.944Z,43.23
2018-05-23T15:04:36.012Z,42.98
2018-05-23T15:07:17.508Z,41.80
2018-05-23T15:09:45.801Z,41.17
2018-05-23T15:12:25.795Z,39.87
2018-05-23T15:15:05.729Z,38.18
2018-05-23T15:17:35.798Z,40.11
2018-05-23T15:20:15.145Z,42.02
2018-05-23T15:22:45.011Z,42.83
2018-05-23T15:25:13.324Z,42.87
2018-05-23T15:27:43.566Z,42.15
2018-05-23T15:30:17.450Z,39.93
2018-05-23T15:33:09.378Z,39.77
2018-05-23T15:35:45.455Z,39.07
2018-05-23T15:38:19.319Z,40.32
2018-05-23T15:40:49.576Z,40.36
2018-05-23T15:43:30.330Z,39.89
2018-05-23T15:46:04.485Z,41.50
2018-05-23T15:48:37.077Z,41.18
2018-05-23T15:51:11.132Z,39.47
2018-05-23T15:53:58.839Z,40.11
2018-05-23T15:56:30.333Z,36.56
2018-05-23T15:59:04.079Z,35.74
2018-05-23T16:01:37.081Z,37.09
2018-05-23T16:04:21.976Z,37.23
2018-05-23T16:07:11.384Z,35.28
2018-05-23T16:09:40.755Z,35.07
2018-05-23T16:12:22.387Z,34.38
2018-05-23T16:14:51.273Z,35.46
2018-05-23T16:17:19.551Z,36.92
2018-05-23T16:19:49.797Z,37.70
2018-05-23T16:22:18.204Z,37.84
2018-05-23T16:24:50.699Z,36.41
2018-05-23T16:27:26.187Z,37.25
2018-05-23T16:29:57.243Z,38.08
2018-05-23T16:32:37.910Z,37.16
2018-05-23T16:35:10.358Z,37.14
2018-05-23T16:37:38.625Z,37.47
2018-05-23T16:40:11.180Z,38.14
2018-05-23T16:42:40.040Z,35.84
2018-05-23T16:45:10.195Z,35.57
2018-05-23T16:47:39.365Z,34.43
2018-05-23T16:50:07.839Z,34.82
2018-05-23T16:52:44.656Z,35.46
2018-05-23T16:55:14.010Z,36.48
2018-05-23T16:57:43.262Z,36.40
2018-05-23T17:00:11.611Z,34.76
2018-05-23T17:02:40.926Z,34.16
2018-05-23T17:05:09.209Z,33.54
2018-05-23T17:07:38.267Z,30.90
2018-05-23T17:10:07.599Z,31.20
2018-05-23T17:12:36.945Z,28.86
2018-05-23T17:15:07.079Z,27.91
2018-05-23T17:17:37.405Z,28.70
2018-05-23T17:20:10.266Z,27.75
2018-05-23T17:22:41.343Z,27.78
2018-05-23T17:25:11.620Z,27.61
2018-05-23T17:27:43.654Z,27.24
2018-05-23T17:30:15.344Z,26.57
2018-05-23T17:32:49.691Z,25.76
2018-05-23T17:35:29.437Z,25.52
2018-05-23T17:37:59.743Z,25.52
2018-05-23T17:40:28.799Z,25.90
2018-05-23T17:42:58.117Z,26.02
2018-05-23T17:45:31.354Z,25.68
2018-05-23T17:48:01.627Z,25.22
2018-05-23T17:50:31.709Z,25.09
2018-05-23T17:53:01.084Z,25.05
2018-05-23T17:55:33.430Z,25.26
2018-05-23T17:58:07.255Z,25.12
2018-05-23T18:00:41.988Z,24.74
2018-05-23T18:03:11.077Z,24.68
2018-05-23T18:05:47.607Z,24.26
2018-05-23T18:08:15.899Z,24.22
2018-05-23T18:10:48.743Z,24.05
2018-05-23T18:13:48.732Z,23.93
2018-05-23T18:16:29.959Z,23.72
2018-05-23T18:19:08.883Z,23.77
2018-05-23T18:21:43.256Z,23.49
2018-05-23T18:24:12.411Z,23.37
2018-05-23T18:26:40.695Z,23.14
2018-05-23T18:29:09.054Z,22.93
2018-05-23T18:31:41.052Z,22.82
2018-05-23T18:34:12.872Z,22.65
2018-05-23T18:36:51.103Z,22.46
2018-05-23T18:39:19.378Z,22.30
2018-05-23T18:41:49.596Z,22.15
2018-05-23T18:44:18.171Z,21.97
2018-05-23T18:46:48.426Z,21.85
2018-05-23T18:49:22.948Z,21.79
2018-05-23T18:51:52.223Z,21.66
2018-05-23T18:54:33.693Z,21.53
2018-05-23T18:57:05.095Z,21.42
2018-05-23T18:59:47.110Z,21.37
2018-05-23T19:02:25.136Z,21.24
2018-05-23T19:05:00.144Z,21.12
2018-05-23T19:07:39.949Z,21.04
2018-05-23T19:10:08.374Z,20.96
2018-05-23T19:12:56.661Z,20.89
2018-05-23T19:15:25.910Z,20.79
2018-05-23T19:18:01.493Z,20.65
2018-05-23T19:20:30.846Z,20.60
2018-05-23T19:22:59.936Z,20.55
2018-05-23T19:25:28.688Z,20.53
2018-05-23T19:27:57.004Z,20.51
2018-05-23T19:30:25.263Z,20.45
2018-05-23T19:32:54.239Z,20.43
2018-05-23T19:35:24.528Z,20.46
2018-05-23T19:37:53.816Z,20.47
2018-05-23T19:40:25.496Z,20.52
2018-05-23T19:42:54.829Z,20.71
2018-05-23T19:45:24.117Z,20.76
2018-05-23T19:47:54.389Z,20.79
2018-05-23T19:50:23.457Z,20.78
2018-05-23T19:52:57.737Z,20.76
2018-05-23T19:55:31.562Z,20.75
2018-05-23T19:58:08.250Z,20.77
2018-05-23T20:00:47.177Z,20.81
2018-05-23T20:03:21.309Z,20.75
2018-05-23T20:05:49.560Z,20.78
2018-05-23T20:08:34.461Z,20.74
2018-05-23T20:11:09.522Z,20.73
2018-05-23T20:13:49.223Z,20.66
2018-05-23T20:16:18.307Z,20.60
2018-05-23T20:18:48.536Z,20.65
2018-05-23T20:21:18.637Z,20.60
2018-05-23T20:23:47.844Z,20.52
2018-05-23T20:26:18.169Z,20.42
2018-05-23T20:28:47.496Z,20.28
2018-05-23T20:31:17.795Z,20.16
2018-05-23T20:33:48.260Z,20.04
2018-05-23T20:36:18.351Z,20.04
2018-05-23T20:38:52.271Z,19.96
2018-05-23T20:41:25.011Z,19.87
2018-05-23T20:43:54.384Z,19.70
2018-05-23T20:46:26.450Z,19.63
2018-05-23T20:48:58.171Z,19.53
2018-05-23T20:51:28.497Z,19.48
2018-05-23T20:53:57.577Z,19.48
2018-05-23T20:56:25.959Z,19.40
2018-05-23T20:58:58.208Z,19.37
2018-05-23T21:01:27.279Z,19.28
2018-05-23T21:04:00.085Z,19.25
2018-05-23T21:06:29.440Z,19.26
2018-05-23T21:09:00.434Z,19.24
2018-05-23T21:11:39.523Z,19.60
2018-05-23T21:14:07.876Z,19.59
2018-05-23T21:16:50.832Z,19.56
2018-05-23T21:19:22.323Z,19.24
2018-05-23T21:21:54.243Z,19.05
2018-05-23T21:24:23.596Z,19.01
2018-05-23T21:27:02.447Z,19.02
2018-05-23T21:29:31.495Z,18.97
2018-05-23T21:32:10.182Z,18.90
2018-05-23T21:34:45.832Z,18.80
2018-05-23T21:37:20.704Z,18.84
2018-05-23T21:39:53.784Z,18.80
2018-05-23T21:42:22.096Z,18.76
2018-05-23T21:44:53.845Z,18.78
2018-05-23T21:47:23.276Z,18.79
2018-05-23T21:49:54.295Z,18.77
2018-05-23T21:52:25.775Z,18.83
2018-05-23T21:55:07.919Z,18.73
2018-05-23T21:57:39.544Z,18.69
2018-05-23T22:00:12.419Z,18.65
2018-05-23T22:03:00.057Z,18.65
2018-05-23T22:05:33.176Z,18.61
2018-05-23T22:08:05.817Z,18.60
2018-05-23T22:10:35.098Z,18.63
2018-05-23T22:13:05.250Z,18.64
2018-05-23T22:15:35.448Z,18.63
2018-05-23T22:18:09.909Z,18.65
2018-05-23T22:20:38.927Z,18.70
2018-05-23T22:23:13.526Z,18.81
2018-05-23T22:25:59.341Z,18.76
2018-05-23T22:28:38.079Z,18.71
2018-05-23T22:31:08.484Z,18.73
2018-05-23T22:33:42.787Z,18.66
2018-05-23T22:36:29.104Z,18.57
2018-05-23T22:39:02.657Z,18.64
2018-05-23T22:41:32.002Z,18.80
2018-05-23T22:44:07.074Z,18.58
2018-05-23T22:46:43.113Z,18.36
2018-05-23T22:49:17.502Z,18.21
2018-05-23T22:51:54.452Z,18.00
2018-05-23T22:54:22.830Z,17.91
2018-05-23T22:56:52.074Z,17.80
2018-05-23T22:59:22.318Z,17.83
2018-05-23T23:01:52.640Z,17.82
2018-05-23T23:04:28.271Z,17.67
2018-05-23T23:07:12.004Z,17.61
2018-05-23T23:09:43.723Z,17.47
2018-05-23T23:12:13.019Z,17.36
2018-05-23T23:14:43.080Z,17.26
2018-05-23T23:17:12.297Z,17.17
2018-05-23T23:19:45.483Z,17.16
2018-05-23T23:22:35.276Z,17.20
2018-05-23T23:25:06.319Z,17.21
2018-05-23T23:27:36.556Z,17.13
2018-05-23T23:30:12.262Z,17.09
2018-05-23T23:32:47.666Z,17.13
2018-05-23T23:35:25.702Z,17.14
2018-05-23T23:38:21.280Z,17.18
2018-05-23T23:40:54.095Z,17.17
2018-05-23T23:43:38.890Z,17.18
2018-05-23T23:46:13.920Z,17.25
2018-05-23T23:49:12.315Z,17.27
2018-05-23T23:51:46.032Z,17.35
2018-05-23T23:54:26.415Z,17.55
2018-05-23T23:57:03.320Z,17.46
2018-05-23T23:59:36.430Z,17.53
